Time;durP1;ratioP1;P1;durP2;ratioP2;P2;SDS_P1;SDS_P2;PMS_P1;PMS_P2;Temp;Humidity;BMP_temperature;BMP_pressure;BME280_temperature;BME280_humidity;BME280_pressure;Samples;Min_cycle;Max_cycle;Signal;HPM_P1;HPM_P2
2023/05/02 00:01:56;;;;;;;;;;;;;;;10.50;90.83;101915.81;5055834;28;1246;-76
2023/05/02 00:04:22;;;;;;;;;;;;;;;10.47;89.24;101921.19;5034555;28;1080;-76
2023/05/02 00:06:47;;;;;;;;;;;;;;;10.43;90.77;101927.47;5029619;28;1461;-76
2023/05/02 00:09:13;;;;;;;;;;;;;;;10.33;90.73;101929.03;5034882;28;1980;-76
2023/05/02 00:11:38;;;;;;;;;;;;;;;10.36;89.82;101937.41;5043458;28;1238;-76
2023/05/02 00:14:03;;;;;;;;;;;;;;;10.31;91.04;101930.84;5038492;28;1338;-76
2023/05/02 00:16:28;;;;;;;;;;;;;;;10.30;91.27;101934.38;5046230;28;1274;-75
2023/05/02 00:18:54;;;;;;;;;;;;;;;10.28;91.43;101931.06;5047380;28;1386;-76
2023/05/02 00:21:20;;;;;;;;;;;;;;;10.29;90.97;101937.91;5059389;28;1290;-76
2023/05/02 00:23:45;;;;;;;;;;;;;;;10.33;91.01;101934.19;5043719;28;1194;-75
2023/05/02 00:26:10;;;;;;;;;;;;;;;10.34;91.71;101930.69;5041808;28;1057;-77
2023/05/02 00:28:36;;;;;;;;;;;;;;;10.35;92.75;101927.16;5041034;28;1987;-77
2023/05/02 00:31:01;;;;;;;;;;;;;;;10.35;90.75;101932.34;5039237;28;1290;-75
2023/05/02 00:33:26;;;;;;;;;;;;;;;10.42;91.18;101938.78;5035172;28;1422;-76
2023/05/02 00:35:51;;;;;;;;;;;;;;;10.34;90.46;101938.47;5048631;28;1247;-76
2023/05/02 00:38:17;;;;;;;;;;;;;;;10.26;91.43;101948.44;5044722;28;1379;-76
2023/05/02 00:40:46;;;;;;;;;;;;;;;10.25;91.37;101941.59;5035680;28;1307;-77
2023/05/02 00:43:11;;;;;;;;;;;;;;;10.25;91.57;101941.59;5046252;28;1332;-76
2023/05/02 00:45:39;;;;;;;;;;;;;;;10.23;92.20;101940.84;5045912;28;1424;-76
2023/05/02 00:48:05;;;;;;;;;;;;;;;10.17;91.39;101946.41;5039688;28;1898;-75
2023/05/02 00:50:31;;;;;;;;;;;;;;;10.13;91.43;101947.53;5045847;28;1461;-76
2023/05/02 00:52:59;;;;;;;;;;;;;;;10.11;91.29;101945.88;5044080;28;1211;-76
2023/05/02 00:55:24;;;;;;;;;;;;;;;10.13;91.45;101937.16;5047534;28;1216;-78
2023/05/02 00:57:49;;;;;;;;;;;;;;;10.11;91.40;101937.25;5045294;28;1257;-76
2023/05/02 01:00:15;;;;;;;;;;;;;;;10.11;91.18;101930.31;5050835;28;1293;-76
2023/05/02 01:02:47;;;;;;;;;;;;;;;10.07;91.58;101928.81;5046142;28;1353;-75
2023/05/02 01:05:26;;;;;;;;;;;;;;;10.07;91.26;101928.81;5047586;28;1417;-77
2023/05/02 01:07:59;;;;;;;;;;;;;;;10.05;91.23;101930.69;5043401;28;1909;-76
2023/05/02 01:10:43;;;;;;;;;;;;;;;10.09;91.54;101926.13;5045569;28;1226;-78
2023/05/02 01:13:12;;;;;;;;;;;;;;;10.08;91.36;101935.69;5045067;28;1154;-79
2023/05/02 01:15:39;;;;;;;;;;;;;;;10.08;91.72;101940.03;5046396;28;1267;-76
2023/05/02 01:18:07;;;;;;;;;;;;;;;10.09;91.38;101941.69;5041336;28;1258;-75
2023/05/02 01:20:35;;;;;;;;;;;;;;;10.08;91.83;101935.69;5037760;28;1094;-77
2023/05/02 01:23:06;;;;;;;;;;;;;;;10.15;92.42;101937.88;5035031;28;1075;-75
2023/05/02 01:25:43;;;;;;;;;;;;;;;10.03;92.08;101942.06;5039684;28;890;-76
2023/05/02 01:28:15;;;;;;;;;;;;;;;9.99;92.17;101950.97;5042014;28;1961;-76
2023/05/02 01:30:42;;;;;;;;;;;;;;;10.01;92.16;101939.56;5055241;28;1320;-76
2023/05/02 01:33:09;;;;;;;;;;;;;;;10.03;92.02;101952.44;5046126;28;1009;-76
2023/05/02 01:35:35;;;;;;;;;;;;;;;10.03;91.83;101948.09;5041237;28;1477;-75
2023/05/02 01:38:01;;;;;;;;;;;;;;;10.02;92.32;101956.78;5046077;28;1224;-76
2023/05/02 01:40:27;;;;;;;;;;;;;;;10.05;92.21;101951.44;5042602;28;1576;-75
2023/05/02 01:42:53;;;;;;;;;;;;;;;10.07;92.51;101965.13;5040666;28;1295;-75
2023/05/02 01:45:20;;;;;;;;;;;;;;;10.04;92.68;101962.72;5041232;28;1264;-75
2023/05/02 01:47:47;;;;;;;;;;;;;;;10.05;92.21;101966.97;5042321;28;2227;-76
2023/05/02 01:50:20;;;;;;;;;;;;;;;10.07;92.60;101970.31;5042743;28;1433;-77
2023/05/02 01:52:48;;;;;;;;;;;;;;;10.10;92.63;101975.31;5045947;28;1274;-75
2023/05/02 01:55:14;;;;;;;;;;;;;;;10.09;93.08;101968.47;5041073;28;1255;-75
2023/05/02 01:57:41;;;;;;;;;;;;;;;10.10;93.21;101975.31;5039529;28;1009;-76
2023/05/02 02:00:08;;;;;;;;;;;;;;;10.11;92.64;101973.56;5044297;28;1260;-75
2023/05/02 02:02:34;;;;;;;;;;;;;;;10.06;93.48;101979.00;5042395;28;1129;-76
2023/05/02 02:05:00;;;;;;;;;;;;;;;10.05;93.72;101977.34;5038234;28;1202;-77
2023/05/02 02:07:25;;;;;;;;;;;;;;;10.11;92.61;101981.34;5048640;28;1325;-76
2023/05/02 02:09:51;;;;;;;;;;;;;;;10.07;93.89;101991.03;5044717;28;1870;-77
2023/05/02 02:12:23;;;;;;;;;;;;;;;10.03;94.13;101983.53;5036047;28;1052;-75
2023/05/02 02:15:09;;;;;;;;;;;;;;;10.02;93.54;101987.88;5037332;28;1252;-76
2023/05/02 02:17:42;;;;;;;;;;;;;;;9.99;95.49;101990.69;5046719;28;1200;-75
2023/05/02 02:20:09;;;;;;;;;;;;;;;9.99;93.69;101993.28;5034637;28;1299;-77
2023/05/02 02:22:36;;;;;;;;;;;;;;;10.07;94.49;101991.03;5046662;28;1583;-77
2023/05/02 02:25:04;;;;;;;;;;;;;;;9.98;95.88;101991.63;5050175;28;1295;-76
2023/05/02 02:27:29;;;;;;;;;;;;;;;9.94;97.03;101999.66;5035121;28;1240;-77
2023/05/02 02:29:54;;;;;;;;;;;;;;;9.88;99.36;101995.69;5037423;28;1898;-76
2023/05/02 02:32:19;;;;;;;;;;;;;;;9.89;98.35;102002.53;5034705;28;1416;-76
2023/05/02 02:34:45;;;;;;;;;;;;;;;9.88;98.62;102006.03;5034498;28;1305;-76
2023/05/02 02:37:15;;;;;;;;;;;;;;;9.77;100.00;102013.63;5037339;28;1224;-78
2023/05/02 02:40:07;;;;;;;;;;;;;;;9.74;99.56;102008.59;5045577;28;1530;-75
2023/05/02 02:42:39;;;;;;;;;;;;;;;9.64;99.05;102010.09;5034625;28;1248;-76
2023/05/02 02:45:11;;;;;;;;;;;;;;;9.52;99.54;102022.00;5033008;28;1547;-76
2023/05/02 02:47:46;;;;;;;;;;;;;;;9.44;99.51;102014.66;5038558;28;1959;-77
2023/05/02 02:50:35;;;;;;;;;;;;;;;9.44;98.28;102014.66;5042463;28;1287;-76
2023/05/02 02:53:08;;;;;;;;;;;;;;;9.36;98.91;102024.63;5057512;28;1300;-76
2023/05/02 02:55:37;;;;;;;;;;;;;;;9.33;99.25;102029.97;5038368;28;1312;-77
2023/05/02 02:58:08;;;;;;;;;;;;;;;9.30;99.23;102030.16;5051036;28;1485;-78
2023/05/02 03:00:34;;;;;;;;;;;;;;;9.27;98.66;102035.50;5038488;28;1170;-78
2023/05/02 03:02:59;;;;;;;;;;;;;;;9.24;98.83;102035.69;5034758;28;1347;-76
2023/05/02 03:05:24;;;;;;;;;;;;;;;9.26;98.76;102034.69;5036997;28;1348;-77
2023/05/02 03:07:50;;;;;;;;;;;;;;;9.26;98.59;102049.38;5028592;28;1906;-75
2023/05/02 03:10:15;;;;;;;;;;;;;;;9.24;98.76;102046.06;5034390;28;1299;-75
2023/05/02 03:12:42;;;;;;;;;;;;;;;9.26;98.54;102044.19;5043628;28;1397;-76
2023/05/02 03:15:17;;;;;;;;;;;;;;;9.23;98.55;102050.41;5033795;28;1344;-76
2023/05/02 03:17:42;;;;;;;;;;;;;;;9.26;97.91;102049.38;5037252;28;1163;-76
2023/05/02 03:20:08;;;;;;;;;;;;;;;9.17;97.76;102053.31;5041983;28;1395;-78
2023/05/02 03:22:33;;;;;;;;;;;;;;;9.21;96.85;102057.41;5044224;28;1214;-75
2023/05/02 03:24:58;;;;;;;;;;;;;;;9.17;96.21;102060.22;5042241;28;1314;-76
2023/05/02 03:27:23;;;;;;;;;;;;;;;9.08;95.89;102060.75;5041160;28;1189;-76
2023/05/02 03:29:48;;;;;;;;;;;;;;;9.06;95.33;102068.63;5043431;28;1973;-78
2023/05/02 03:32:13;;;;;;;;;;;;;;;9.01;95.20;102075.81;5038576;28;993;-76
2023/05/02 03:34:40;;;;;;;;;;;;;;;9.03;95.26;102085.13;5045910;28;1391;-75
2023/05/02 03:37:05;;;;;;;;;;;;;;;9.02;94.93;102083.47;5036786;28;1068;-76
2023/05/02 03:39:31;;;;;;;;;;;;;;;8.99;94.93;102083.63;5046641;28;1306;-75
2023/05/02 03:41:56;;;;;;;;;;;;;;;9.04;94.63;102091.16;5057401;28;1329;-75
2023/05/02 03:44:21;;;;;;;;;;;;;;;8.95;93.62;102086.50;5037368;28;1379;-77
2023/05/02 03:46:47;;;;;;;;;;;;;;;8.98;93.99;102086.31;5046008;28;1260;-77
2023/05/02 03:49:12;;;;;;;;;;;;;;;8.92;93.71;102091.81;5047840;28;1894;-75
2023/05/02 03:51:37;;;;;;;;;;;;;;;8.87;93.44;102094.66;5038199;28;1263;-74
2023/05/02 03:54:03;;;;;;;;;;;;;;;8.89;93.47;102102.31;5040010;28;1096;-77
2023/05/02 03:56:28;;;;;;;;;;;;;;;8.82;92.78;102101.81;5040649;28;1156;-75
2023/05/02 03:58:53;;;;;;;;;;;;;;;8.82;92.77;102100.97;5044975;28;1304;-76
2023/05/02 04:01:18;;;;;;;;;;;;;;;8.78;92.82;102100.34;5047116;28;1255;-75
2023/05/02 04:03:44;;;;;;;;;;;;;;;8.71;92.32;102104.13;5046447;28;1489;-76
2023/05/02 04:06:09;;;;;;;;;;;;;;;8.69;92.57;102111.16;5045676;28;1237;-75
2023/05/02 04:08:35;;;;;;;;;;;;;;;8.69;92.43;102108.56;5037994;28;1961;-75
2023/05/02 04:11:01;;;;;;;;;;;;;;;8.66;91.86;102111.31;5044156;28;1312;-75
2023/05/02 04:13:28;;;;;;;;;;;;;;;8.61;92.71;102108.16;5041232;28;1224;-76
2023/05/02 04:15:53;;;;;;;;;;;;;;;8.59;92.14;102117.72;5046505;28;1553;-76
2023/05/02 04:18:18;;;;;;;;;;;;;;;8.62;92.12;102112.41;5045449;28;1010;-75
2023/05/02 04:20:44;;;;;;;;;;;;;;;8.60;92.41;102124.56;5039999;28;1296;-75
2023/05/02 04:23:09;;;;;;;;;;;;;;;8.62;92.42;102121.00;5049736;28;1259;-76
2023/05/02 04:25:34;;;;;;;;;;;;;;;8.60;92.12;102125.44;5047296;28;1191;-75
2023/05/02 04:27:59;;;;;;;;;;;;;;;8.63;91.84;102137.34;5044404;28;1965;-77
2023/05/02 04:30:25;;;;;;;;;;;;;;;8.63;91.85;102133.00;5041501;28;1197;-74
2023/05/02 04:32:50;;;;;;;;;;;;;;;8.58;91.63;102139.34;5039599;28;1692;-75
2023/05/02 04:35:16;;;;;;;;;;;;;;;8.56;91.17;102141.19;5044010;28;1403;-77
2023/05/02 04:37:41;;;;;;;;;;;;;;;8.58;91.30;102149.69;5041948;28;1533;-74
2023/05/02 04:40:07;;;;;;;;;;;;;;;8.54;91.64;102153.34;5040864;28;1203;-76
2023/05/02 04:42:33;;;;;;;;;;;;;;;8.54;91.35;102153.34;5055358;28;1329;-75
2023/05/02 04:44:58;;;;;;;;;;;;;;;8.55;91.62;102152.44;5033847;28;1497;-74
2023/05/02 04:47:23;;;;;;;;;;;;;;;8.55;91.83;102160.19;5044622;28;1168;-76
2023/05/02 04:49:48;;;;;;;;;;;;;;;8.56;91.17;102161.88;5039314;28;1918;-76
2023/05/02 04:52:13;;;;;;;;;;;;;;;8.50;91.35;102169.03;5047545;28;1173;-75
2023/05/02 04:54:39;;;;;;;;;;;;;;;8.49;91.15;102167.34;5046980;28;1331;-76
2023/05/02 04:57:06;;;;;;;;;;;;;;;8.57;91.18;102179.03;5050157;28;1532;-75
2023/05/02 04:59:32;;;;;;;;;;;;;;;8.51;91.31;102178.44;5046656;28;1068;-75
2023/05/02 05:01:57;;;;;;;;;;;;;;;8.60;91.57;102189.22;5036348;28;1655;-78
2023/05/02 05:04:23;;;;;;;;;;;;;;;8.51;90.91;102191.38;5036803;28;1033;-75
2023/05/02 05:06:48;;;;;;;;;;;;;;;8.52;91.10;102194.78;5041741;28;1434;-76
2023/05/02 05:09:14;;;;;;;;;;;;;;;8.47;91.00;102200.19;5037138;28;1973;-78
2023/05/02 05:11:41;;;;;;;;;;;;;;;8.52;91.00;102200.78;5042427;28;1086;-77
2023/05/02 05:14:06;;;;;;;;;;;;;;;8.51;90.84;102204.31;5049302;28;1218;-74
2023/05/02 05:16:32;;;;;;;;;;;;;;;8.50;90.83;102210.38;5045641;28;1091;-75
2023/05/02 05:18:57;;;;;;;;;;;;;;;8.54;90.62;102199.88;5040631;28;1105;-75
2023/05/02 05:21:22;;;;;;;;;;;;;;;8.57;90.77;102204.91;5046210;28;1107;-76
2023/05/02 05:23:47;;;;;;;;;;;;;;;8.56;90.73;102209.25;5040271;28;1285;-76
2023/05/02 05:26:16;;;;;;;;;;;;;;;8.55;89.43;102222.25;5043830;28;1113;-76
2023/05/02 05:28:42;;;;;;;;;;;;;;;8.57;90.33;102220.41;5038115;28;1977;-75
2023/05/02 05:31:09;;;;;;;;;;;;;;;8.55;90.15;102222.25;5053552;28;1278;-77
2023/05/02 05:33:34;;;;;;;;;;;;;;;8.59;89.90;102226.34;5036411;28;1179;-75
2023/05/02 05:36:06;;;;;;;;;;;;;;;8.61;89.92;102232.28;5031053;28;1454;-76
2023/05/02 05:38:31;;;;;;;;;;;;;;;8.61;90.27;102234.88;5042655;28;1442;-75
2023/05/02 05:40:57;;;;;;;;;;;;;;;8.58;89.94;102237.59;5041637;28;1191;-76
2023/05/02 05:43:22;;;;;;;;;;;;;;;8.55;89.87;102243.78;5040168;28;1247;-75
2023/05/02 05:45:47;;;;;;;;;;;;;;;8.55;89.60;102250.72;5043459;28;1435;-77
2023/05/02 05:48:12;;;;;;;;;;;;;;;8.52;89.14;102255.09;5043244;28;1886;-76
2023/05/02 05:50:37;;;;;;;;;;;;;;;8.50;89.45;102251.75;5040842;28;1353;-77
2023/05/02 05:53:03;;;;;;;;;;;;;;;8.47;89.07;102253.66;5044200;28;1083;-75
2023/05/02 05:55:28;;;;;;;;;;;;;;;8.46;89.04;102255.41;5042148;28;1232;-76
2023/05/02 05:57:53;;;;;;;;;;;;;;;8.44;88.30;102257.25;5039066;28;1568;-76
2023/05/02 06:00:18;;;;;;;;;;;;;;;8.44;87.59;102272.75;5036036;28;1261;-75
2023/05/02 06:02:44;;;;;;;;;;;;;;;8.43;87.37;102276.25;5046471;28;1430;-75
2023/05/02 06:05:09;;;;;;;;;;;;;;;8.43;87.01;102278.84;5042110;28;1240;-75
2023/05/02 06:07:34;;;;;;;;;;;;;;;8.43;87.23;102281.44;5044776;28;1139;-76
2023/05/02 06:09:59;;;;;;;;;;;;;;;8.41;86.50;102278.06;5041484;28;1898;-77
2023/05/02 06:12:24;;;;;;;;;;;;;;;8.44;86.37;102287.44;5045629;28;1200;-75
2023/05/02 06:14:51;;;;;;;;;;;;;;;8.43;86.35;102286.59;5040832;28;1248;-75
2023/05/02 06:17:16;;;;;;;;;;;;;;;8.47;85.62;102303.63;5045196;28;1264;-75
2023/05/02 06:19:41;;;;;;;;;;;;;;;8.47;85.38;102298.44;5041381;28;1468;-75
2023/05/02 06:22:07;;;;;;;;;;;;;;;8.47;83.93;102301.03;5039949;28;1734;-75
2023/05/02 06:24:32;;;;;;;;;;;;;;;8.45;83.65;102300.28;5045029;28;1146;-75
2023/05/02 06:26:57;;;;;;;;;;;;;;;8.44;83.60;102310.69;5037737;28;1093;-76
2023/05/02 06:29:22;;;;;;;;;;;;;;;8.42;81.99;102315.94;5037156;28;1956;-75
2023/05/02 06:31:49;;;;;;;;;;;;;;;8.44;83.20;102329.63;5045724;28;1482;-76
2023/05/02 06:34:15;;;;;;;;;;;;;;;8.46;82.65;102332.13;5045710;28;1203;-77
2023/05/02 06:36:40;;;;;;;;;;;;;;;8.45;82.61;102340.81;5043650;28;1494;-76
2023/05/02 06:39:05;;;;;;;;;;;;;;;8.47;83.27;102345.00;5043962;28;1240;-75
2023/05/02 06:41:31;;;;;;;;;;;;;;;8.50;83.25;102339.69;5035197;28;1329;-76
2023/05/02 06:43:56;;;;;;;;;;;;;;;8.51;82.32;102353.44;5044508;28;1525;-78
2023/05/02 06:46:21;;;;;;;;;;;;;;;8.45;81.21;102362.34;5037867;28;1565;-77
2023/05/02 06:48:47;;;;;;;;;;;;;;;8.42;81.34;102361.63;5040456;28;1957;-76
2023/05/02 06:51:13;;;;;;;;;;;;;;;8.38;81.48;102371.31;5040288;28;1356;-76
2023/05/02 06:53:38;;;;;;;;;;;;;;;8.37;81.55;102374.81;5036298;28;1151;-75
2023/05/02 06:56:05;;;;;;;;;;;;;;;8.30;79.29;102378.53;5044293;28;1180;-80
2023/05/02 06:58:30;;;;;;;;;;;;;;;8.24;78.31;102382.25;5043392;28;1577;-76
2023/05/02 07:00:55;;;;;;;;;;;;;;;8.24;78.67;102384.00;5043741;28;1297;-76
2023/05/02 07:03:20;;;;;;;;;;;;;;;8.23;78.27;102387.50;5046379;28;1405;-76
2023/05/02 07:05:46;;;;;;;;;;;;;;;8.24;78.05;102389.16;5046923;28;1702;-75
2023/05/02 07:08:11;;;;;;;;;;;;;;;8.25;77.78;102390.81;5046799;28;1957;-77
2023/05/02 07:10:36;;;;;;;;;;;;;;;8.29;77.62;102397.53;5041801;28;1210;-76
2023/05/02 07:13:01;;;;;;;;;;;;;;;8.34;77.52;102400.75;5044256;28;1104;-78
2023/05/02 07:15:26;;;;;;;;;;;;;;;8.37;75.29;102400.66;5045905;28;1199;-75
2023/05/02 07:17:52;;;;;;;;;;;;;;;8.39;76.04;102403.16;5049591;28;1002;-75
2023/05/02 07:20:17;;;;;;;;;;;;;;;8.44;77.31;102407.19;5048422;28;1005;-76
2023/05/02 07:22:42;;;;;;;;;;;;;;;8.48;76.28;102419.06;5049704;28;1161;-78
2023/05/02 07:25:08;;;;;;;;;;;;;;;8.49;74.04;102410.41;5050726;28;1163;-78
2023/05/02 07:27:33;;;;;;;;;;;;;;;8.51;74.33;102424.09;5041966;28;1238;-77
2023/05/02 07:29:59;;;;;;;;;;;;;;;8.55;74.06;102419.63;5047913;28;1898;-76
2023/05/02 07:32:25;;;;;;;;;;;;;;;8.58;75.63;102418.63;5048978;28;1135;-75
2023/05/02 07:34:53;;;;;;;;;;;;;;;8.64;74.75;102423.50;5045323;28;1568;-79
2023/05/02 07:37:18;;;;;;;;;;;;;;;8.71;75.04;102424.88;5044582;28;1088;-75
2023/05/02 07:39:43;;;;;;;;;;;;;;;8.79;76.20;102427.97;5042607;28;1189;-76
2023/05/02 07:42:08;;;;;;;;;;;;;;;8.82;74.69;102427.78;5049639;28;1299;-75
2023/05/02 07:44:34;;;;;;;;;;;;;;;8.85;73.52;102417.31;5046517;28;1232;-75
2023/05/02 07:47:00;;;;;;;;;;;;;;;8.91;73.75;102426.53;5043961;28;1192;-75
2023/05/02 07:49:25;;;;;;;;;;;;;;;9.00;74.00;102419.16;5042970;28;1898;-77
2023/05/02 07:51:50;;;;;;;;;;;;;;;9.13;72.99;102426.31;5042206;28;1281;-76
2023/05/02 07:54:16;;;;;;;;;;;;;;;9.23;71.60;102432.66;5043877;28;1207;-77
2023/05/02 07:56:41;;;;;;;;;;;;;;;9.24;71.25;102430.03;5040467;28;1212;-75
2023/05/02 07:59:06;;;;;;;;;;;;;;;9.22;71.60;102443.94;5041469;28;1220;-75
2023/05/02 08:01:32;;;;;;;;;;;;;;;9.18;70.59;102440.69;5039218;28;1231;-76
2023/05/02 08:03:57;;;;;;;;;;;;;;;9.21;72.73;102439.69;5040985;28;1180;-76
2023/05/02 08:06:22;;;;;;;;;;;;;;;9.23;71.93;102443.03;5044914;28;1196;-75
2023/05/02 08:08:48;;;;;;;;;;;;;;;9.27;72.08;102440.22;5046797;28;2471;-78
2023/05/02 08:11:13;;;;;;;;;;;;;;;9.30;69.14;102450.44;5042813;28;1389;-76
2023/05/02 08:13:38;;;;;;;;;;;;;;;9.25;70.30;102451.56;5036808;28;1290;-76
2023/05/02 08:16:03;;;;;;;;;;;;;;;9.30;69.92;102452.19;5042103;28;1838;-76
2023/05/02 08:18:29;;;;;;;;;;;;;;;9.23;70.55;102459.44;5061649;28;1610;-76
2023/05/02 08:20:54;;;;;;;;;;;;;;;9.17;71.33;102461.47;5045885;28;1251;-75
2023/05/02 08:23:20;;;;;;;;;;;;;;;9.04;72.00;102469.00;5047087;28;1200;-77
2023/05/02 08:25:45;;;;;;;;;;;;;;;8.92;72.64;102465.25;5045630;28;1218;-75
2023/05/02 08:28:10;;;;;;;;;;;;;;;8.87;72.69;102477.56;5060165;28;1961;-75
2023/05/02 08:30:35;;;;;;;;;;;;;;;8.79;73.10;102477.09;5038238;28;1228;-76
2023/05/02 08:33:00;;;;;;;;;;;;;;;8.77;73.35;102481.50;5045644;28;1531;-76
2023/05/02 08:35:27;;;;;;;;;;;;;;;8.78;73.98;102488.38;5047855;28;1241;-76
2023/05/02 08:37:53;;;;;;;;;;;;;;;8.80;74.05;102483.97;5046455;28;1275;-76
2023/05/02 08:40:19;;;;;;;;;;;;;;;8.77;73.44;102491.84;5043110;28;1573;-77
2023/05/02 08:42:44;;;;;;;;;;;;;;;8.75;73.32;102488.50;5041870;28;1610;-76
2023/05/02 08:45:11;;;;;;;;;;;;;;;8.71;74.15;102492.13;5043154;28;1435;-77
2023/05/02 08:47:37;;;;;;;;;;;;;;;8.75;74.49;102498.84;5045708;28;1593;-77
2023/05/02 08:50:04;;;;;;;;;;;;;;;8.88;75.18;102499.94;5046122;28;1953;-76
2023/05/02 08:52:31;;;;;;;;;;;;;;;9.07;75.92;102504.25;5040379;28;1196;-76
2023/05/02 08:54:57;;;;;;;;;;;;;;;9.34;75.69;102502.88;5039928;28;1642;-76
2023/05/02 08:57:22;;;;;;;;;;;;;;;9.46;74.01;102504.88;5041739;28;1180;-77
2023/05/02 08:59:48;;;;;;;;;;;;;;;9.49;72.64;102512.50;5041067;28;1287;-76
2023/05/02 09:02:36;;;;;;;;;;;;;;;9.53;71.54;102514.03;5037340;28;1279;-76
2023/05/02 09:05:04;;;;;;;;;;;;;;;9.55;68.69;102517.34;5042669;28;1510;-77
2023/05/02 09:07:29;;;;;;;;;;;;;;;9.57;70.96;102515.53;5053232;28;1381;-76
2023/05/02 09:09:55;;;;;;;;;;;;;;;9.64;70.23;102523.00;5033613;28;1965;-76
2023/05/02 09:12:25;;;;;;;;;;;;;;;9.65;69.50;102527.28;5053271;28;1307;-77
2023/05/02 09:15:08;;;;;;;;;;;;;;;9.67;69.79;102534.03;5045568;28;1082;-75
2023/05/02 09:17:39;;;;;;;;;;;;;;;9.67;66.87;102526.25;5037144;28;1193;-77
2023/05/02 09:20:05;;;;;;;;;;;;;;;9.78;67.39;102534.34;5043752;28;1033;-76
2023/05/02 09:22:30;;;;;;;;;;;;;;;9.90;67.99;102532.88;5037192;28;1131;-76
2023/05/02 09:24:56;;;;;;;;;;;;;;;9.86;66.33;102531.34;5034429;28;1375;-76
2023/05/02 09:27:21;;;;;;;;;;;;;;;9.94;65.38;102539.56;5033811;28;1194;-76
2023/05/02 09:29:46;;;;;;;;;;;;;;;10.01;65.07;102538.34;5039770;28;2322;-78
2023/05/02 09:32:11;;;;;;;;;;;;;;;9.95;64.14;102549.03;5040781;28;1191;-78
2023/05/02 09:34:38;;;;;;;;;;;;;;;9.90;63.95;102548.41;5045790;28;1293;-76
2023/05/02 09:37:04;;;;;;;;;;;;;;;9.86;64.70;102546.88;5055726;28;1304;-75
2023/05/02 09:39:29;;;;;;;;;;;;;;;9.83;66.46;102562.63;5044794;28;1275;-76
2023/05/02 09:41:55;;;;;;;;;;;;;;;9.75;65.16;102551.81;5039120;28;1092;-76
2023/05/02 09:44:22;;;;;;;;;;;;;;;9.73;66.49;102561.41;5053421;28;1336;-78
2023/05/02 09:46:48;;;;;;;;;;;;;;;9.66;66.39;102557.44;5043539;28;1466;-77
2023/05/02 09:49:13;;;;;;;;;;;;;;;9.67;66.06;102567.72;5038800;28;1886;-77
2023/05/02 09:51:39;;;;;;;;;;;;;;;9.60;65.36;102563.75;5039012;28;1200;-77
2023/05/02 09:54:04;;;;;;;;;;;;;;;9.60;65.59;102565.53;5041649;28;1349;-76
2023/05/02 09:56:29;;;;;;;;;;;;;;;9.62;64.33;102568.88;5041348;28;1293;-76
2023/05/02 09:59:13;;;;;;;;;;;;;;;9.61;62.70;102572.38;5041158;28;1259;-76
2023/05/02 10:01:39;;;;;;;;;;;;;;;9.74;64.25;102563.91;5042218;28;1263;-76
2023/05/02 10:04:05;;;;;;;;;;;;;;;9.91;63.65;102563.06;5041606;28;1169;-76
2023/05/02 10:06:31;;;;;;;;;;;;;;;9.97;62.19;102565.31;5041891;28;1244;-76
2023/05/02 10:08:57;;;;;;;;;;;;;;;9.94;61.72;102565.50;5039241;28;1953;-80
2023/05/02 10:11:23;;;;;;;;;;;;;;;9.97;61.01;102569.66;5043319;28;1632;-78
2023/05/02 10:13:49;;;;;;;;;;;;;;;9.96;60.75;102571.44;5032025;28;1316;-76
2023/05/02 10:16:21;;;;;;;;;;;;;;;10.00;61.59;102580.72;5038393;28;1537;-75
2023/05/02 10:18:51;;;;;;;;;;;;;;;10.03;58.38;102585.75;5044811;28;1312;-76
2023/05/02 10:21:19;;;;;;;;;;;;;;;10.07;60.74;102582.09;5045288;28;1180;-80
2023/05/02 10:23:44;;;;;;;;;;;;;;;10.16;60.45;102582.56;5043936;28;1176;-77
2023/05/02 10:26:11;;;;;;;;;;;;;;;10.26;60.77;102574.22;5042099;28;1494;-76
2023/05/02 10:28:37;;;;;;;;;;;;;;;10.38;58.97;102580.56;5037364;28;1975;-75
2023/05/02 10:31:04;;;;;;;;;;;;;;;10.35;58.56;102585.88;5043220;28;1188;-78
2023/05/02 10:33:30;;;;;;;;;;;;;;;10.48;58.42;102586.06;5032505;28;1517;-75
2023/05/02 10:35:56;;;;;;;;;;;;;;;10.43;57.71;102588.91;5038566;28;1291;-75
2023/05/02 10:38:22;;;;;;;;;;;;;;;10.60;59.03;102590.59;5047697;28;1541;-75
2023/05/02 10:40:54;;;;;;;;;;;;;;;10.69;55.57;102586.69;5048141;28;1359;-75
2023/05/02 10:43:20;;;;;;;;;;;;;;;10.80;56.11;102592.97;5046901;28;1529;-76
2023/05/02 10:45:45;;;;;;;;;;;;;;;10.79;56.92;102590.47;5038609;28;1569;-77
2023/05/02 10:48:16;;;;;;;;;;;;;;;10.84;56.25;102591.06;5038185;28;1882;-76
2023/05/02 10:50:50;;;;;;;;;;;;;;;10.93;54.01;102590.53;5043185;28;1193;-76
2023/05/02 10:53:27;;;;;;;;;;;;;;;10.89;55.12;102592.44;5041675;28;1350;-76
2023/05/02 10:56:11;;;;;;;;;;;;;;;10.87;53.67;102583.09;5045566;28;1260;-78
2023/05/02 10:58:37;;;;;;;;;;;;;;;10.88;54.62;102595.13;5064163;28;1553;-77
2023/05/02 11:01:21;;;;;;;;;;;;;;;10.87;57.41;102588.28;5041365;28;1243;-77
2023/05/02 11:03:56;;;;;;;;;;;;;;;10.98;55.85;102580.75;5042293;28;1449;-76
2023/05/02 11:06:21;;;;;;;;;;;;;;;11.07;55.33;102590.63;5047202;28;1191;-76
2023/05/02 11:08:47;;;;;;;;;;;;;;;11.21;57.57;102591.63;5042694;28;2024;-76
2023/05/02 11:11:30;;;;;;;;;;;;;;;11.29;57.32;102599.81;5042607;28;1145;-77
2023/05/02 11:13:56;;;;;;;;;;;;;;;11.17;55.25;102607.34;5042907;28;1258;-77
2023/05/02 11:16:21;;;;;;;;;;;;;;;11.12;55.52;102598.97;5041520;28;1175;-76
2023/05/02 11:19:00;;;;;;;;;;;;;;;11.24;56.12;102605.28;5039083;28;1065;-77
2023/05/02 11:21:27;;;;;;;;;;;;;;;11.35;53.16;102599.44;5036110;28;1139;-76
2023/05/02 11:24:13;;;;;;;;;;;;;;;11.19;50.77;102603.84;5047352;28;1286;-77
2023/05/02 11:26:38;;;;;;;;;;;;;;;11.13;52.67;102610.22;5044373;28;1299;-76
2023/05/02 11:29:03;;;;;;;;;;;;;;;11.07;54.23;102611.41;5043042;28;1890;-78
2023/05/02 11:31:28;;;;;;;;;;;;;;;10.96;54.63;102608.56;5045260;28;1223;-77
2023/05/02 11:33:57;;;;;;;;;;;;;;;11.01;54.64;102605.69;5040442;28;1207;-77
2023/05/02 11:36:32;;;;;;;;;;;;;;;11.26;55.55;102602.59;5043217;28;1254;-77
2023/05/02 11:38:58;;;;;;;;;;;;;;;11.51;54.47;102594.22;5041656;28;1384;-77
2023/05/02 11:41:37;;;;;;;;;;;;;;;11.81;54.87;102597.69;5049373;28;1513;-76
2023/05/02 11:44:02;;;;;;;;;;;;;;;11.86;50.09;102600.00;5047415;28;1188;-77
2023/05/02 11:46:27;;;;;;;;;;;;;;;11.74;50.66;102592.91;5048770;28;1160;-77
2023/05/02 11:48:53;;;;;;;;;;;;;;;11.68;51.34;102597.53;5041378;28;1977;-77
2023/05/02 11:51:21;;;;;;;;;;;;;;;11.57;51.05;102584.31;5034748;28;1578;-77
2023/05/02 11:53:47;;;;;;;;;;;;;;;11.51;52.87;102600.25;5039709;28;1073;-76
2023/05/02 11:56:12;;;;;;;;;;;;;;;11.60;52.52;102594.53;5039668;28;1239;-76
2023/05/02 11:58:37;;;;;;;;;;;;;;;11.72;52.08;102599.97;5046838;28;1397;-76
2023/05/02 12:01:13;;;;;;;;;;;;;;;11.90;50.51;102601.50;5045588;28;1244;-78
2023/05/02 12:03:38;;;;;;;;;;;;;;;12.00;48.68;102596.63;5046328;28;1572;-77
2023/05/02 12:06:10;;;;;;;;;;;;;;;12.05;51.07;102603.22;5039154;28;1279;-76
2023/05/02 12:08:35;;;;;;;;;;;;;;;11.97;51.07;102608.03;5044394;28;1947;-78
2023/05/02 12:11:00;;;;;;;;;;;;;;;11.70;49.47;102606.09;5037569;28;1204;-77
2023/05/02 12:13:26;;;;;;;;;;;;;;;11.53;50.20;102613.19;5062911;28;1274;-76
2023/05/02 12:15:52;;;;;;;;;;;;;;;11.63;52.39;102619.50;5046278;28;1299;-77
2023/05/02 12:18:18;;;;;;;;;;;;;;;11.74;52.02;102616.28;5046642;28;1335;-78
2023/05/02 12:20:44;;;;;;;;;;;;;;;11.89;51.49;102621.47;5037937;28;1576;-77
2023/05/02 12:23:09;;;;;;;;;;;;;;;12.02;52.22;102625.97;5045318;28;1092;-76
2023/05/02 12:25:36;;;;;;;;;;;;;;;12.06;51.91;102622.25;5039051;28;1355;-77
2023/05/02 12:28:02;;;;;;;;;;;;;;;11.95;50.85;102623.72;5039673;28;1961;-76
2023/05/02 12:30:27;;;;;;;;;;;;;;;11.80;49.33;102628.94;5044114;28;1289;-77
2023/05/02 12:33:00;;;;;;;;;;;;;;;11.88;49.43;102637.19;5058767;28;1186;-77
2023/05/02 12:35:26;;;;;;;;;;;;;;;12.01;49.77;102635.53;5046705;28;1396;-77
2023/05/02 12:37:53;;;;;;;;;;;;;;;12.06;49.80;102636.09;5040320;28;1216;-77
2023/05/02 12:40:18;;;;;;;;;;;;;;;12.11;48.70;102641.88;5041911;28;1585;-77
2023/05/02 12:42:57;;;;;;;;;;;;;;;12.15;50.19;102643.34;5044893;28;1352;-76
2023/05/02 12:45:22;;;;;;;;;;;;;;;12.19;48.92;102646.59;5040614;28;1090;-77
2023/05/02 12:47:48;;;;;;;;;;;;;;;12.23;49.32;102640.31;5037863;28;1479;-77
2023/05/02 12:50:13;;;;;;;;;;;;;;;12.26;50.73;102639.28;5040019;28;1981;-78
2023/05/02 12:52:45;;;;;;;;;;;;;;;12.29;49.66;102641.69;5044446;28;1458;-76